Terminal Aerodrome Forecast
Issued by NWS

Home | Current Version | Previous Version | Text Only | Print | Product List | Glossary On
Versions: 1 2 3 4 5 6 7 8 9 10 11 12 13 14 15 16 17 18 19 20 21 22 23 24 25 26 27 28 29
000
FTUS43 KDLH 250846 AAA
TAFHYR
TAF AMD
KHYR 250846Z 2509/2606 19009G17KT P6SM SCT070 OVC090
     FM251700 18004KT P6SM BKN060
     FM252000 VRB03KT P6SM VCSH OVC030
     FM252200 VRB03KT 2SM -SHRA OVC020
     FM260000 06006KT 2SM RA OVC015
     FM260200 06007KT 2SM RA OVC008=

USA.gov is the U.S. government's official web portal to all federal, state and local government web resources and services.